createdAt,value
2018-11-20T00:05:09.266Z,5.93
2018-11-20T00:10:30.771Z,6.90
2018-11-20T00:15:55.588Z,7.00
2018-11-20T00:21:31.021Z,7.40
2018-11-20T00:27:09.168Z,6.00
2018-11-20T00:32:30.941Z,7.70
2018-11-20T00:37:46.326Z,7.03
2018-11-20T00:43:18.460Z,6.70
2018-11-20T00:48:53.449Z,7.00
2018-11-20T00:54:05.612Z,6.13
2018-11-20T00:59:28.847Z,6.43
2018-11-20T01:05:01.576Z,6.30
2018-11-20T01:10:28.429Z,7.10
2018-11-20T01:15:46.676Z,6.17
2018-11-20T01:21:19.006Z,7.00
2018-11-20T01:26:32.725Z,7.23
2018-11-20T01:31:54.429Z,7.27
2018-11-20T01:37:16.289Z,7.00
2018-11-20T01:42:35.296Z,6.73
2018-11-20T01:48:13.722Z,6.77
2018-11-20T01:53:42.572Z,6.70
2018-11-20T01:59:02.730Z,7.60
2018-11-20T02:04:24.802Z,6.60
2018-11-20T02:10:18.809Z,8.00
2018-11-20T02:15:49.866Z,8.20
2018-11-20T02:21:03.432Z,8.77
2018-11-20T02:26:16.354Z,7.00
2018-11-20T02:31:26.364Z,7.70
2018-11-20T02:36:54.576Z,7.60
2018-11-20T02:42:15.261Z,8.70
2018-11-20T02:47:40.132Z,7.10
2018-11-20T02:53:02.225Z,7.40
2018-11-20T02:58:28.056Z,7.80
2018-11-20T03:03:48.819Z,8.23
2018-11-20T03:08:59.452Z,8.43
2018-11-20T03:14:20.098Z,8.93
2018-11-20T03:19:50.989Z,8.30
2018-11-20T03:25:17.089Z,8.03
2018-11-20T03:31:18.102Z,8.50
2018-11-20T03:36:42.391Z,6.97
2018-11-20T03:42:04.499Z,7.60
2018-11-20T03:47:25.046Z,9.20
2018-11-20T03:52:37.539Z,9.70
2018-11-20T03:57:59.618Z,9.27
2018-11-20T04:03:19.896Z,9.13
2018-11-20T04:08:56.927Z,9.57
2018-11-20T04:14:26.225Z,8.67
2018-11-20T04:19:36.386Z,9.90
2018-11-20T04:24:57.313Z,7.37
2018-11-20T04:31:13.865Z,10.23
2018-11-20T04:36:38.660Z,8.90
2018-11-20T04:41:58.068Z,11.10
2018-11-20T04:47:11.917Z,10.93
2018-11-20T04:52:42.784Z,11.60
2018-11-20T04:57:58.352Z,11.07
2018-11-20T05:03:35.720Z,10.33
2018-11-20T05:08:45.626Z,11.60
2018-11-20T05:14:06.249Z,11.40
2018-11-20T05:19:34.010Z,10.30
2018-11-20T05:24:58.909Z,10.00
2018-11-20T05:30:21.017Z,10.53
2018-11-20T05:35:33.929Z,9.50
2018-11-20T05:40:43.689Z,9.60
2018-11-20T05:46:04.358Z,9.80
2018-11-20T05:51:18.795Z,9.60
2018-11-20T05:56:43.533Z,8.43
2018-11-20T06:01:53.451Z,11.00
2018-11-20T06:07:04.140Z,12.47
2018-11-20T06:12:32.010Z,11.43
2018-11-20T06:17:52.898Z,10.20
2018-11-20T06:23:14.982Z,11.90
2018-11-20T06:28:26.759Z,11.53
2018-11-20T06:33:50.392Z,10.17
2018-11-20T06:39:05.581Z,8.60
2018-11-20T06:44:26.268Z,9.83
2018-11-20T06:49:41.283Z,12.10
2018-11-20T06:55:03.361Z,10.90
2018-11-20T07:00:43.613Z,11.90
2018-11-20T07:06:04.171Z,10.73
2018-11-20T07:11:28.825Z,11.20
2018-11-20T07:16:52.178Z,10.63
2018-11-20T07:22:02.107Z,13.50
2018-11-20T07:27:24.378Z,13.00
2018-11-20T07:32:40.553Z,13.90
2018-11-20T07:38:20.831Z,11.30
2018-11-20T07:43:29.979Z,13.50
2018-11-20T07:48:42.083Z,10.43
2018-11-20T07:54:19.110Z,12.00
2018-11-20T07:59:40.038Z,11.57
2018-11-20T08:05:05.029Z,13.43
2018-11-20T08:10:25.564Z,11.17
2018-11-20T08:15:56.597Z,12.70
2018-11-20T08:21:05.248Z,11.40
2018-11-20T08:26:26.023Z,10.27
2018-11-20T08:32:06.155Z,10.37
2018-11-20T08:37:18.092Z,10.27
2018-11-20T08:42:38.510Z,9.67
2018-11-20T08:47:51.936Z,11.03
2018-11-20T08:53:23.484Z,10.27
2018-11-20T08:58:51.392Z,14.70
2018-11-20T09:04:16.084Z,10.17
2018-11-20T09:09:39.820Z,7.70
2018-11-20T09:15:00.622Z,10.57
2018-11-20T09:20:28.672Z,9.37
2018-11-20T09:25:53.527Z,11.10
2018-11-20T09:31:14.093Z,9.97
2018-11-20T09:36:25.222Z,10.50
2018-11-20T09:41:35.380Z,9.70
2018-11-20T09:46:54.903Z,10.87
2018-11-20T09:52:16.275Z,10.30
2018-11-20T09:57:53.314Z,9.40
2018-11-20T10:03:18.313Z,10.23
2018-11-20T10:08:46.420Z,9.43
2018-11-20T10:14:07.346Z,8.90
2018-11-20T10:19:21.100Z,8.90
2018-11-20T10:24:49.329Z,9.20
2018-11-20T10:30:20.431Z,10.43
2018-11-20T10:35:48.507Z,10.63
2018-11-20T10:41:09.346Z,10.50
2018-11-20T10:46:22.248Z,10.80
2018-11-20T10:51:50.055Z,10.07
2018-11-20T10:57:10.876Z,11.57
2018-11-20T11:02:31.678Z,10.67
2018-11-20T11:07:53.151Z,11.30
2018-11-20T11:13:13.624Z,10.50
2018-11-20T11:18:53.994Z,10.17
2018-11-20T11:24:14.532Z,11.33
2018-11-20T11:29:35.165Z,10.67
2018-11-20T11:34:57.252Z,10.53
2018-11-20T11:40:13.476Z,10.80
2018-11-20T11:45:24.957Z,10.13
2018-11-20T11:50:39.954Z,11.20
2018-11-20T11:56:00.819Z,9.70
2018-11-20T12:06:54.224Z,9.50
2018-11-20T12:12:15.315Z,9.77
2018-11-20T12:17:34.608Z,10.20
2018-11-20T12:22:55.655Z,10.83
2018-11-20T12:28:30.067Z,10.10
2018-11-20T12:33:41.997Z,10.37
2018-11-20T12:39:02.713Z,10.83
2018-11-20T12:44:26.770Z,10.40
2018-11-20T12:49:54.801Z,10.77
2018-11-20T12:55:33.961Z,9.17
2018-11-20T13:00:53.703Z,9.57
2018-11-20T13:06:34.068Z,10.53
2018-11-20T13:12:11.384Z,10.80
2018-11-20T13:17:29.493Z,9.80
2018-11-20T13:22:55.640Z,9.73
2018-11-20T13:28:15.507Z,9.93
2018-11-20T13:33:27.025Z,9.30
2018-11-20T13:38:56.751Z,10.87
2018-11-20T13:44:18.831Z,10.40
2018-11-20T13:49:43.684Z,10.93
2018-11-20T13:55:04.254Z,9.97
2018-11-20T14:00:38.234Z,10.60
2018-11-20T14:05:59.011Z,10.03
2018-11-20T14:11:19.740Z,10.10
2018-11-20T14:16:41.850Z,9.53
2018-11-20T14:22:03.267Z,8.97
2018-11-20T14:27:40.340Z,10.00
2018-11-20T14:32:58.550Z,9.47
2018-11-20T14:38:21.600Z,9.67
2018-11-20T14:43:37.638Z,11.10
2018-11-20T14:48:59.828Z,9.87
2018-11-20T14:54:21.012Z,10.07
2018-11-20T14:59:56.356Z,10.93
2018-11-20T15:05:11.044Z,10.37
2018-11-20T15:10:20.827Z,10.27
2018-11-20T15:15:37.885Z,11.23
2018-11-20T15:20:58.711Z,11.10
2018-11-20T15:26:14.257Z,11.10
2018-11-20T15:31:38.895Z,11.27
2018-11-20T15:36:59.445Z,10.17
2018-11-20T15:42:31.006Z,11.50
2018-11-20T15:47:48.423Z,12.30
2018-11-20T15:53:08.913Z,13.60
2018-11-20T15:58:29.447Z,15.67
2018-11-20T16:03:58.180Z,13.63
2018-11-20T16:09:18.808Z,14.23
2018-11-20T16:14:40.915Z,21.00
2018-11-20T16:20:04.104Z,14.50
2018-11-20T16:25:24.905Z,12.93
2018-11-20T16:30:59.115Z,14.57
2018-11-20T16:36:21.228Z,15.30
2018-11-20T16:41:46.019Z,15.03
2018-11-20T16:47:06.640Z,16.30
2018-11-20T16:52:37.539Z,17.30
2018-11-20T16:57:58.169Z,16.17
2018-11-20T17:03:18.873Z,16.10
2018-11-20T17:08:45.796Z,16.83
2018-11-20T17:14:23.045Z,19.50
2018-11-20T17:19:32.659Z,18.73
2018-11-20T17:24:53.398Z,16.77
2018-11-20T17:30:15.487Z,17.17
2018-11-20T17:35:52.765Z,14.77
2018-11-20T17:41:09.557Z,14.30
2018-11-20T17:46:31.699Z,14.67
2018-11-20T17:51:56.435Z,15.47
2018-11-20T17:57:21.328Z,14.43
2018-11-20T18:02:42.092Z,15.17
2018-11-20T18:08:13.075Z,15.70
2018-11-20T18:13:30.658Z,15.40
2018-11-20T18:18:51.595Z,12.50
2018-11-20T18:24:13.666Z,12.83
2018-11-20T18:29:25.233Z,13.30
2018-11-20T18:34:45.499Z,12.83
2018-11-20T18:40:05.863Z,12.23
2018-11-20T18:45:20.285Z,13.03
2018-11-20T18:50:45.358Z,11.03
2018-11-20T18:56:01.973Z,11.53
2018-11-20T19:01:23.152Z,13.30
2018-11-20T19:06:43.750Z,12.60
2018-11-20T19:12:09.690Z,10.40
2018-11-20T19:17:30.746Z,10.87
2018-11-20T19:22:55.378Z,12.13
2018-11-20T19:28:16.035Z,10.97
2018-11-20T19:33:47.588Z,10.97
2018-11-20T19:39:27.696Z,12.63
2018-11-20T19:44:50.937Z,13.83
2018-11-20T19:50:11.834Z,11.27
2018-11-20T19:55:48.937Z,13.17
2018-11-20T20:01:09.990Z,11.93
2018-11-20T20:06:32.072Z,12.30
2018-11-20T20:11:42.590Z,12.40
2018-11-20T20:17:00.902Z,12.30
2018-11-20T20:22:21.813Z,12.97
2018-11-20T20:27:42.697Z,12.97
2018-11-20T20:33:04.031Z,12.10
2018-11-20T20:38:41.049Z,13.00
2018-11-20T20:44:01.625Z,13.00
2018-11-20T20:49:22.401Z,12.77
2018-11-20T20:54:43.055Z,13.50
2018-11-20T21:00:18.676Z,12.70
2018-11-20T21:05:39.494Z,12.97
2018-11-20T21:11:01.578Z,13.70
2018-11-20T21:16:31.466Z,12.53
2018-11-20T21:21:46.487Z,12.17
2018-11-20T21:27:23.516Z,12.10
2018-11-20T21:32:54.591Z,14.57
2018-11-20T21:38:34.748Z,14.43
2018-11-20T21:44:09.039Z,16.30
2018-11-20T21:49:28.324Z,14.60
2018-11-20T21:54:44.415Z,15.33
2018-11-20T22:00:27.268Z,17.00
2018-11-20T22:05:43.487Z,17.37
2018-11-20T22:11:23.736Z,15.00
2018-11-20T22:16:51.245Z,16.80
2018-11-20T22:22:11.678Z,18.17
2018-11-20T22:27:32.386Z,18.07
2018-11-20T22:33:09.379Z,15.67
2018-11-20T22:38:34.527Z,17.70
2018-11-20T22:43:54.954Z,16.10
2018-11-20T22:49:15.554Z,17.80
2018-11-20T22:54:43.404Z,16.83
2018-11-20T23:00:05.494Z,17.67
2018-11-20T23:05:32.145Z,18.10
2018-11-20T23:10:34.616Z,17.87
2018-11-20T23:15:37.106Z,18.33
2018-11-20T23:20:39.592Z,17.17
2018-11-20T23:25:42.082Z,18.33
2018-11-20T23:30:44.567Z,18.47
2018-11-20T23:35:47.041Z,19.80
2018-11-20T23:40:49.517Z,18.10
2018-11-20T23:45:51.995Z,19.07
2018-11-20T23:50:54.511Z,19.50
2018-11-20T23:55:56.996Z,19.47
